createdAt,value
2023-05-02T00:01:12.395Z,6.31
2023-05-02T00:03:42.099Z,6.27
2023-05-02T00:06:11.430Z,6.23
2023-05-02T00:08:40.455Z,6.22
2023-05-02T00:11:08.746Z,6.23
2023-05-02T00:13:38.408Z,6.20
2023-05-02T00:16:07.349Z,6.12
2023-05-02T00:18:35.753Z,6.03
2023-05-02T00:21:04.041Z,5.93
2023-05-02T00:23:32.332Z,5.85
2023-05-02T00:26:00.559Z,5.89
2023-05-02T00:28:28.922Z,5.87
2023-05-02T00:30:59.506Z,5.88
2023-05-02T00:33:27.892Z,5.85
2023-05-02T00:35:56.162Z,5.77
2023-05-02T00:38:24.505Z,5.73
2023-05-02T00:40:53.445Z,5.71
2023-05-02T00:43:21.756Z,5.67
2023-05-02T00:45:49.967Z,5.63
2023-05-02T00:48:21.813Z,5.58
2023-05-02T00:50:50.323Z,5.56
2023-05-02T00:53:18.910Z,5.52
2023-05-02T00:55:49.556Z,5.57
2023-05-02T00:58:20.155Z,5.51
2023-05-02T01:01:04.209Z,5.46
2023-05-02T01:03:41.485Z,5.40
2023-05-02T01:06:21.564Z,5.38
2023-05-02T01:08:57.036Z,5.35
2023-05-02T01:11:34.687Z,5.31
2023-05-02T01:14:09.791Z,5.26
2023-05-02T01:16:42.223Z,5.25
2023-05-02T01:19:23.303Z,5.23
2023-05-02T01:21:53.770Z,5.19
2023-05-02T01:24:27.822Z,5.22
2023-05-02T01:27:08.583Z,5.18
2023-05-02T01:29:40.301Z,5.15
2023-05-02T01:32:10.593Z,5.08
2023-05-02T01:34:41.888Z,5.13
2023-05-02T01:37:13.684Z,5.14
2023-05-02T01:39:43.868Z,5.07
2023-05-02T01:42:13.587Z,5.04
2023-05-02T01:44:44.621Z,4.97
2023-05-02T01:47:13.998Z,4.94
2023-05-02T01:49:43.810Z,4.94
2023-05-02T01:52:14.010Z,4.87
2023-05-02T01:54:42.734Z,4.84
2023-05-02T01:57:13.238Z,4.91
2023-05-02T01:59:46.287Z,4.88
2023-05-02T02:02:16.876Z,4.85
2023-05-02T02:04:50.013Z,4.82
2023-05-02T02:07:18.428Z,4.78
2023-05-02T02:09:46.651Z,4.78
2023-05-02T02:12:33.228Z,4.79
2023-05-02T02:15:10.318Z,4.78
2023-05-02T02:17:41.617Z,4.79
2023-05-02T02:20:13.990Z,4.80
2023-05-02T02:22:44.934Z,4.81
2023-05-02T02:25:15.614Z,4.79
2023-05-02T02:27:43.994Z,4.74
2023-05-02T02:30:13.855Z,4.74
2023-05-02T02:32:42.194Z,4.74
2023-05-02T02:35:11.714Z,4.69
2023-05-02T02:37:44.082Z,4.68
2023-05-02T02:40:20.386Z,4.59
2023-05-02T02:42:57.038Z,4.58
2023-05-02T02:45:35.197Z,4.62
2023-05-02T02:48:12.729Z,4.66
2023-05-02T02:50:54.067Z,4.65
2023-05-02T02:53:28.748Z,4.74
2023-05-02T02:56:01.777Z,4.78
2023-05-02T02:58:40.763Z,4.84
2023-05-02T03:01:13.312Z,4.82
2023-05-02T03:03:44.433Z,4.90
2023-05-02T03:06:13.067Z,4.97
2023-05-02T03:08:42.221Z,5.02
2023-05-02T03:11:15.060Z,5.07
2023-05-02T03:13:43.572Z,5.00
2023-05-02T03:16:36.672Z,5.04
2023-05-02T03:19:08.494Z,5.01
2023-05-02T03:21:37.967Z,5.05
2023-05-02T03:24:19.859Z,5.06
2023-05-02T03:26:49.661Z,5.06
2023-05-02T03:29:24.590Z,5.02
2023-05-02T03:31:54.676Z,5.03
2023-05-02T03:34:24.604Z,5.05
2023-05-02T03:36:54.375Z,5.07
2023-05-02T03:39:22.810Z,5.12
2023-05-02T03:41:51.144Z,5.14
2023-05-02T03:44:23.739Z,5.14
2023-05-02T03:46:52.218Z,5.18
2023-05-02T03:49:21.983Z,5.23
2023-05-02T03:51:53.300Z,5.28
2023-05-02T03:54:26.801Z,5.33
2023-05-02T03:56:56.392Z,5.36
2023-05-02T03:59:30.431Z,5.42
2023-05-02T04:01:59.322Z,5.45
2023-05-02T04:04:40.913Z,5.51
2023-05-02T04:07:16.987Z,5.57
2023-05-02T04:09:46.679Z,5.60
2023-05-02T04:12:16.826Z,5.65
2023-05-02T04:14:49.073Z,5.70
2023-05-02T04:17:18.728Z,5.72
2023-05-02T04:19:51.497Z,5.80
2023-05-02T04:22:22.159Z,5.84
2023-05-02T04:24:58.623Z,5.92
2023-05-02T04:27:28.716Z,5.95
2023-05-02T04:29:57.033Z,6.00
2023-05-02T04:32:25.925Z,5.86
2023-05-02T04:34:56.685Z,6.05
2023-05-02T04:37:25.528Z,6.09
2023-05-02T04:39:53.888Z,6.16
2023-05-02T04:42:26.114Z,6.22
2023-05-02T04:45:01.618Z,6.26
2023-05-02T04:47:32.185Z,6.33
2023-05-02T04:50:03.139Z,6.42
2023-05-02T04:52:32.499Z,6.49
2023-05-02T04:55:00.779Z,6.55
2023-05-02T04:57:33.288Z,6.60
2023-05-02T05:00:03.226Z,6.67
2023-05-02T05:02:36.253Z,6.70
2023-05-02T05:05:06.967Z,6.74
2023-05-02T05:07:35.620Z,6.78
2023-05-02T05:10:04.014Z,6.83
2023-05-02T05:12:41.134Z,6.87
2023-05-02T05:15:12.009Z,6.91
2023-05-02T05:17:44.355Z,6.97
2023-05-02T05:20:15.151Z,7.02
2023-05-02T05:22:44.316Z,7.09
2023-05-02T05:25:15.221Z,7.15
2023-05-02T05:28:14.010Z,7.22
2023-05-02T05:30:42.539Z,7.30
2023-05-02T05:33:14.723Z,7.41
2023-05-02T05:35:44.487Z,7.50
2023-05-02T05:38:12.700Z,7.60
2023-05-02T05:40:43.831Z,7.69
2023-05-02T05:43:13.270Z,7.73
2023-05-02T05:45:41.575Z,7.82
2023-05-02T05:48:10.024Z,7.89
2023-05-02T05:50:47.146Z,7.91
2023-05-02T05:53:15.982Z,7.94
2023-05-02T05:55:46.683Z,8.03
2023-05-02T05:58:15.530Z,8.09
2023-05-02T06:00:45.799Z,8.27
2023-05-02T06:03:14.285Z,8.34
2023-05-02T06:05:42.834Z,8.46
2023-05-02T06:08:12.640Z,8.58
2023-05-02T06:10:41.748Z,8.69
2023-05-02T06:13:10.319Z,8.78
2023-05-02T06:15:42.122Z,8.93
2023-05-02T06:18:10.489Z,9.02
2023-05-02T06:20:38.828Z,9.12
2023-05-02T06:23:07.156Z,9.24
2023-05-02T06:25:39.137Z,9.33
2023-05-02T06:28:07.571Z,9.47
2023-05-02T06:30:36.199Z,9.59
2023-05-02T06:33:05.930Z,9.72
2023-05-02T06:35:34.284Z,9.86
2023-05-02T06:38:02.709Z,9.91
2023-05-02T06:40:31.066Z,9.96
2023-05-02T06:43:00.923Z,10.07
2023-05-02T06:45:29.199Z,10.23
2023-05-02T06:47:57.488Z,10.36
2023-05-02T06:50:25.761Z,10.53
2023-05-02T06:52:54.144Z,10.65
2023-05-02T06:55:22.505Z,10.78
2023-05-02T06:57:51.515Z,10.99
2023-05-02T07:00:22.038Z,11.14
2023-05-02T07:02:50.912Z,11.25
2023-05-02T07:05:19.228Z,11.29
2023-05-02T07:07:47.486Z,11.33
2023-05-02T07:10:15.747Z,11.44
2023-05-02T07:12:44.068Z,11.52
2023-05-02T07:15:13.879Z,11.59
2023-05-02T07:17:43.724Z,11.70
2023-05-02T07:20:13.225Z,11.88
2023-05-02T07:22:41.409Z,12.00
2023-05-02T07:25:10.729Z,12.09
2023-05-02T07:27:39.093Z,12.19
2023-05-02T07:30:08.447Z,12.32
2023-05-02T07:32:36.757Z,12.38
2023-05-02T07:35:07.383Z,12.57
2023-05-02T07:37:36.580Z,12.77
2023-05-02T07:40:06.076Z,12.96
2023-05-02T07:42:36.313Z,13.06
2023-05-02T07:45:05.031Z,13.18
2023-05-02T07:47:35.881Z,13.29
2023-05-02T07:50:04.837Z,13.44
2023-05-02T07:52:36.317Z,13.54
2023-05-02T07:55:05.236Z,13.66
2023-05-02T07:57:33.664Z,13.78
2023-05-02T08:00:02.195Z,13.97
2023-05-02T08:02:43.120Z,14.02
2023-05-02T08:05:11.705Z,14.14
2023-05-02T08:07:41.463Z,14.10
2023-05-02T08:10:10.985Z,14.15
2023-05-02T08:12:40.396Z,14.21
2023-05-02T08:15:10.370Z,14.31
2023-05-02T08:17:39.062Z,14.45
2023-05-02T08:20:08.652Z,14.52
2023-05-02T08:22:36.894Z,14.73
2023-05-02T08:25:07.361Z,14.76
2023-05-02T08:27:36.027Z,14.72
2023-05-02T08:30:04.592Z,14.72
2023-05-02T08:32:34.825Z,14.74
2023-05-02T08:35:03.534Z,14.79
2023-05-02T08:37:34.180Z,14.94
2023-05-02T08:40:03.034Z,14.90
2023-05-02T08:42:37.194Z,14.88
2023-05-02T08:45:07.218Z,14.87
2023-05-02T08:47:38.010Z,14.95
2023-05-02T08:50:08.421Z,14.97
2023-05-02T08:52:37.274Z,15.08
2023-05-02T08:55:07.329Z,15.17
2023-05-02T08:57:37.026Z,15.20
2023-05-02T09:00:06.843Z,15.19
2023-05-02T09:02:53.471Z,15.12
2023-05-02T09:05:25.916Z,15.19
2023-05-02T09:07:54.257Z,15.22
2023-05-02T09:10:23.198Z,15.29
2023-05-02T09:12:53.016Z,15.27
2023-05-02T09:15:22.471Z,15.23
2023-05-02T09:17:51.150Z,15.32
2023-05-02T09:20:19.552Z,15.43
2023-05-02T09:22:51.974Z,15.47
2023-05-02T09:25:21.586Z,15.73
2023-05-02T09:27:55.918Z,15.81
2023-05-02T09:30:26.128Z,15.79
2023-05-02T09:32:56.007Z,15.79
2023-05-02T09:35:25.861Z,15.82
2023-05-02T09:37:55.785Z,15.80
2023-05-02T09:40:24.681Z,15.81
2023-05-02T09:42:54.497Z,15.78
2023-05-02T09:45:24.072Z,15.94
2023-05-02T09:47:53.760Z,15.98
2023-05-02T09:50:35.830Z,15.98
2023-05-02T09:53:06.145Z,15.88
2023-05-02T09:55:34.637Z,15.93
2023-05-02T09:58:04.382Z,16.05
2023-05-02T10:00:43.260Z,16.23
2023-05-02T10:03:12.364Z,16.29
2023-05-02T10:05:41.185Z,16.39
2023-05-02T10:08:10.485Z,16.38
2023-05-02T10:10:40.821Z,16.45
2023-05-02T10:13:11.059Z,16.50
2023-05-02T10:15:45.826Z,16.39
2023-05-02T10:18:15.733Z,16.35
2023-05-02T10:20:49.281Z,16.28
2023-05-02T10:23:18.468Z,16.39
2023-05-02T10:25:47.206Z,16.48
2023-05-02T10:28:17.058Z,16.41
2023-05-02T10:30:46.636Z,16.38
2023-05-02T10:33:16.164Z,16.60
2023-05-02T10:35:46.689Z,16.79
2023-05-02T10:38:19.361Z,16.89
2023-05-02T10:40:57.702Z,16.99
2023-05-02T10:43:29.946Z,17.07
2023-05-02T10:45:58.401Z,17.10
2023-05-02T10:48:28.186Z,17.10
2023-05-02T10:50:58.647Z,17.19
2023-05-02T10:53:32.010Z,17.22
2023-05-02T10:56:13.616Z,17.32
2023-05-02T10:58:45.704Z,17.37
2023-05-02T11:01:40.032Z,17.44
2023-05-02T11:04:09.723Z,17.70
2023-05-02T11:06:59.419Z,17.79
2023-05-02T11:09:35.216Z,17.93
2023-05-02T11:12:05.889Z,18.08
2023-05-02T11:14:49.772Z,18.22
2023-05-02T11:17:19.992Z,18.32
2023-05-02T11:20:26.024Z,18.37
2023-05-02T11:22:58.112Z,18.32
2023-05-02T11:25:38.016Z,18.30
2023-05-02T11:28:09.527Z,18.22
2023-05-02T11:30:44.285Z,17.95
2023-05-02T11:33:17.761Z,18.35
2023-05-02T11:35:47.783Z,18.45
2023-05-02T11:38:21.771Z,18.54
2023-05-02T11:40:58.344Z,18.52
2023-05-02T11:43:30.804Z,18.78
2023-05-02T11:46:05.092Z,18.64
2023-05-02T11:48:33.692Z,18.84
2023-05-02T11:51:07.275Z,19.07
2023-05-02T11:53:42.739Z,19.21
2023-05-02T11:56:11.213Z,19.37
2023-05-02T11:58:39.432Z,19.43
2023-05-02T12:01:17.487Z,19.44
2023-05-02T12:03:48.399Z,19.39
2023-05-02T12:06:18.980Z,19.32
2023-05-02T12:08:49.098Z,19.38
2023-05-02T12:11:17.813Z,19.29
2023-05-02T12:13:47.915Z,19.05
2023-05-02T12:16:18.330Z,18.92
2023-05-02T12:18:48.660Z,18.90
2023-05-02T12:21:17.869Z,18.87
2023-05-02T12:23:46.710Z,18.91
2023-05-02T12:26:18.715Z,18.76
2023-05-02T12:28:51.033Z,18.68
2023-05-02T12:31:20.885Z,18.61
2023-05-02T12:33:50.756Z,18.64
2023-05-02T12:36:19.948Z,18.56
2023-05-02T12:38:53.258Z,18.64
2023-05-02T12:41:32.874Z,18.64
2023-05-02T12:44:01.976Z,18.74
2023-05-02T12:46:32.672Z,18.88
2023-05-02T12:49:06.630Z,19.07
2023-05-02T12:51:35.080Z,18.98
2023-05-02T12:54:03.932Z,18.93
2023-05-02T12:56:39.645Z,18.90
2023-05-02T12:59:08.434Z,18.74
2023-05-02T13:01:38.372Z,18.73
2023-05-02T13:04:06.832Z,18.70
2023-05-02T13:06:37.801Z,18.62
2023-05-02T13:09:06.402Z,18.45
2023-05-02T13:11:34.817Z,18.52
2023-05-02T13:14:05.217Z,18.63
2023-05-02T13:16:36.764Z,18.84
2023-05-02T13:19:06.802Z,19.02
2023-05-02T13:21:35.084Z,19.22
2023-05-02T13:24:04.236Z,18.98
2023-05-02T13:26:32.829Z,18.65
2023-05-02T13:29:01.146Z,18.39
2023-05-02T13:31:29.620Z,18.10
2023-05-02T13:33:58.017Z,18.02
2023-05-02T13:36:27.719Z,17.97
2023-05-02T13:38:56.109Z,17.94
2023-05-02T13:41:25.204Z,17.88
2023-05-02T13:43:53.955Z,17.81
2023-05-02T13:46:22.268Z,17.78
2023-05-02T13:48:50.585Z,17.78
2023-05-02T13:51:18.789Z,17.77
2023-05-02T13:53:48.531Z,17.62
2023-05-02T13:56:16.750Z,17.73
2023-05-02T13:58:44.995Z,17.78
2023-05-02T14:01:13.321Z,17.75
2023-05-02T14:03:41.679Z,17.72
2023-05-02T14:06:09.999Z,17.74
2023-05-02T14:08:38.449Z,17.65
2023-05-02T14:11:08.178Z,17.69
2023-05-02T14:13:36.563Z,18.03
2023-05-02T14:16:05.230Z,18.33
2023-05-02T14:18:33.626Z,18.37
2023-05-02T14:21:03.138Z,18.26
2023-05-02T14:23:31.615Z,18.15
2023-05-02T14:25:59.873Z,18.07
2023-05-02T14:28:29.560Z,18.18
2023-05-02T14:30:57.863Z,18.24
2023-05-02T14:33:26.830Z,18.21
2023-05-02T14:35:55.021Z,18.18
2023-05-02T14:38:23.360Z,18.24
2023-05-02T14:40:51.757Z,18.33
2023-05-02T14:43:20.070Z,18.21
2023-05-02T14:45:49.791Z,18.07
2023-05-02T14:48:18.135Z,17.99
2023-05-02T14:50:46.385Z,17.83
2023-05-02T14:53:14.726Z,17.73
2023-05-02T14:55:43.358Z,17.61
2023-05-02T14:58:11.936Z,17.54
2023-05-02T15:00:40.328Z,17.43
2023-05-02T15:03:10.909Z,17.42
2023-05-02T15:05:39.373Z,17.27
2023-05-02T15:08:07.896Z,17.24
2023-05-02T15:10:38.380Z,17.24
2023-05-02T15:13:07.721Z,17.24
2023-05-02T15:15:37.272Z,17.24
2023-05-02T15:18:05.943Z,17.19
2023-05-02T15:20:35.624Z,17.16
2023-05-02T15:23:04.722Z,17.16
2023-05-02T15:25:33.203Z,17.11
2023-05-02T15:28:02.638Z,16.99
2023-05-02T15:30:30.956Z,16.95
2023-05-02T15:32:59.285Z,16.92
2023-05-02T15:35:27.548Z,16.89
2023-05-02T15:37:57.290Z,16.87
2023-05-02T15:40:27.667Z,16.83
2023-05-02T15:42:58.510Z,16.76
2023-05-02T15:45:26.964Z,16.68
2023-05-02T15:47:55.248Z,16.65
2023-05-02T15:50:24.080Z,16.61
2023-05-02T15:52:52.442Z,16.55
2023-05-02T15:55:22.190Z,16.51
2023-05-02T15:57:52.040Z,16.46
2023-05-02T16:00:21.260Z,16.38
2023-05-02T16:02:49.530Z,16.23
2023-05-02T16:05:18.111Z,15.80
2023-05-02T16:07:46.273Z,15.59
2023-05-02T16:10:14.522Z,15.64
2023-05-02T16:12:46.370Z,15.55
2023-05-02T16:15:14.976Z,15.49
2023-05-02T16:17:43.800Z,14.64
2023-05-02T16:20:13.240Z,14.21
2023-05-02T16:22:44.314Z,13.75
2023-05-02T16:25:12.933Z,13.58
2023-05-02T16:27:41.332Z,13.54
2023-05-02T16:30:12.162Z,13.51
2023-05-02T16:32:40.927Z,13.25
2023-05-02T16:35:12.458Z,13.00
2023-05-02T16:37:41.984Z,12.31
2023-05-02T16:40:11.259Z,11.59
2023-05-02T16:42:40.414Z,11.33
2023-05-02T16:45:11.144Z,11.05
2023-05-02T16:47:39.688Z,10.83
2023-05-02T16:50:09.379Z,10.80
2023-05-02T16:52:38.405Z,10.63
2023-05-02T16:55:07.250Z,10.40
2023-05-02T16:57:35.796Z,10.16
2023-05-02T17:00:04.662Z,10.02
2023-05-02T17:02:37.759Z,9.81
2023-05-02T17:05:06.764Z,9.75
2023-05-02T17:07:34.945Z,9.69
2023-05-02T17:10:04.527Z,9.76
2023-05-02T17:12:33.537Z,9.72
2023-05-02T17:15:04.045Z,9.58
2023-05-02T17:17:33.342Z,9.48
2023-05-02T17:20:03.747Z,9.32
2023-05-02T17:22:32.528Z,9.16
2023-05-02T17:25:00.823Z,9.02
2023-05-02T17:27:29.175Z,8.83
2023-05-02T17:29:57.437Z,8.72
2023-05-02T17:32:25.790Z,8.60
2023-05-02T17:34:54.275Z,8.55
2023-05-02T17:37:26.220Z,8.37
2023-05-02T17:39:54.535Z,8.17
2023-05-02T17:42:22.779Z,7.80
2023-05-02T17:44:51.127Z,7.52
2023-05-02T17:47:20.122Z,7.37
2023-05-02T17:49:49.814Z,7.28
2023-05-02T17:52:18.294Z,7.26
2023-05-02T17:54:47.971Z,7.19
2023-05-02T17:57:16.223Z,7.05
2023-05-02T17:59:44.557Z,7.13
2023-05-02T18:02:12.818Z,7.17
2023-05-02T18:04:43.305Z,7.13
2023-05-02T18:07:12.439Z,7.13
2023-05-02T18:09:40.636Z,7.11
2023-05-02T18:12:10.654Z,7.05
2023-05-02T18:14:39.173Z,7.04
2023-05-02T18:17:36.707Z,7.00
2023-05-02T18:20:10.162Z,6.94
2023-05-02T18:22:43.009Z,6.85
2023-05-02T18:25:11.857Z,6.76
2023-05-02T18:27:42.480Z,6.68
2023-05-02T18:30:11.977Z,6.56
2023-05-02T18:32:40.269Z,6.48
2023-05-02T18:35:11.192Z,6.41
2023-05-02T18:37:39.525Z,6.31
2023-05-02T18:40:09.180Z,6.10
2023-05-02T18:42:37.469Z,6.09
2023-05-02T18:45:08.298Z,5.85
2023-05-02T18:47:36.885Z,5.56
2023-05-02T18:50:06.015Z,5.33
2023-05-02T18:52:34.552Z,5.20
2023-05-02T18:55:04.996Z,5.11
2023-05-02T18:57:34.566Z,5.00
2023-05-02T19:00:06.392Z,4.93
2023-05-02T19:02:36.936Z,4.86
2023-05-02T19:05:07.309Z,4.79
2023-05-02T19:07:36.936Z,4.64
2023-05-02T19:10:07.367Z,4.50
2023-05-02T19:12:35.563Z,4.45
2023-05-02T19:15:05.012Z,4.43
2023-05-02T19:17:33.508Z,4.43
2023-05-02T19:20:03.233Z,4.35
2023-05-02T19:22:34.669Z,4.28
2023-05-02T19:25:03.462Z,4.21
2023-05-02T19:27:32.414Z,4.21
2023-05-02T19:30:00.843Z,4.21
2023-05-02T19:32:29.239Z,4.15
2023-05-02T19:34:58.043Z,4.14
2023-05-02T19:37:27.726Z,4.17
2023-05-02T19:39:56.043Z,4.14
2023-05-02T19:42:24.762Z,4.18
2023-05-02T19:44:53.299Z,4.29
2023-05-02T19:47:22.494Z,4.27
2023-05-02T19:49:52.122Z,4.34
2023-05-02T19:52:20.425Z,4.25
2023-05-02T19:54:52.058Z,4.23
2023-05-02T19:57:20.380Z,4.22
2023-05-02T19:59:48.575Z,4.17
2023-05-02T20:02:16.877Z,4.11
2023-05-02T20:04:45.202Z,4.07
2023-05-02T20:07:13.536Z,4.12
2023-05-02T20:09:41.781Z,4.07
2023-05-02T20:12:11.559Z,4.05
2023-05-02T20:14:40.884Z,4.10
2023-05-02T20:17:09.448Z,4.07
2023-05-02T20:19:37.699Z,4.07
2023-05-02T20:22:05.981Z,3.98
2023-05-02T20:24:34.239Z,3.93
2023-05-02T20:27:02.862Z,3.99
2023-05-02T20:29:32.628Z,3.85
2023-05-02T20:32:00.953Z,3.81
2023-05-02T20:34:29.562Z,3.89
2023-05-02T20:36:58.580Z,3.69
2023-05-02T20:39:26.781Z,3.67
2023-05-02T20:41:58.279Z,3.73
2023-05-02T20:44:27.042Z,3.69
2023-05-02T20:46:56.687Z,3.62
2023-05-02T20:49:25.102Z,3.73
2023-05-02T20:51:53.741Z,3.59
2023-05-02T20:54:22.005Z,3.58
2023-05-02T20:56:50.335Z,3.55
2023-05-02T20:59:18.635Z,3.55
2023-05-02T21:01:47.179Z,3.57
2023-05-02T21:04:17.000Z,3.43
2023-05-02T21:06:45.456Z,3.43
2023-05-02T21:09:13.798Z,3.49
2023-05-02T21:11:42.003Z,3.46
2023-05-02T21:14:10.175Z,3.51
2023-05-02T21:16:38.385Z,3.51
2023-05-02T21:19:06.792Z,3.52
2023-05-02T21:21:36.625Z,3.53
2023-05-02T21:24:05.339Z,3.51
2023-05-02T21:26:33.769Z,3.52
2023-05-02T21:29:02.650Z,3.44
2023-05-02T21:31:32.900Z,3.44
2023-05-02T21:34:01.722Z,3.42
2023-05-02T21:36:30.200Z,3.43
2023-05-02T21:38:59.883Z,3.28
2023-05-02T21:41:28.224Z,3.28
2023-05-02T21:43:56.586Z,3.08
2023-05-02T21:46:24.851Z,3.06
2023-05-02T21:48:53.159Z,2.93
2023-05-02T21:51:21.516Z,2.91
2023-05-02T21:53:49.734Z,2.97
2023-05-02T21:56:19.354Z,2.92
2023-05-02T21:58:49.653Z,3.03
2023-05-02T22:01:18.068Z,3.07
2023-05-02T22:03:46.446Z,3.16
2023-05-02T22:06:15.201Z,3.22
2023-05-02T22:08:44.025Z,3.21
2023-05-02T22:11:12.298Z,3.23
2023-05-02T22:13:41.967Z,3.20
2023-05-02T22:16:10.501Z,3.16
2023-05-02T22:18:38.887Z,3.19
2023-05-02T22:21:08.214Z,3.16
2023-05-02T22:23:36.539Z,3.19
2023-05-02T22:26:04.953Z,3.24
2023-05-02T22:28:33.221Z,3.24
2023-05-02T22:31:03.313Z,3.19
2023-05-02T22:33:31.541Z,3.16
2023-05-02T22:35:59.794Z,3.13
2023-05-02T22:38:28.017Z,3.05
2023-05-02T22:40:56.288Z,3.08
2023-05-02T22:43:24.800Z,3.09
2023-05-02T22:45:53.092Z,3.02
2023-05-02T22:48:22.777Z,3.05
2023-05-02T22:50:51.362Z,3.08
2023-05-02T22:53:21.649Z,3.06
2023-05-02T22:55:50.006Z,3.05
2023-05-02T22:58:18.182Z,3.06
2023-05-02T23:00:46.432Z,3.09
2023-05-02T23:03:14.767Z,3.07
2023-05-02T23:05:44.551Z,3.07
2023-05-02T23:08:12.767Z,3.12
2023-05-02T23:10:41.202Z,3.22
2023-05-02T23:13:09.395Z,3.26
2023-05-02T23:15:38.153Z,3.33
2023-05-02T23:18:07.040Z,3.33
2023-05-02T23:20:35.349Z,3.36
2023-05-02T23:23:05.808Z,3.38
2023-05-02T23:25:36.118Z,3.38
2023-05-02T23:28:04.374Z,3.39
2023-05-02T23:30:33.249Z,3.44
2023-05-02T23:33:01.962Z,3.46
2023-05-02T23:35:30.664Z,3.40
2023-05-02T23:38:00.877Z,3.44
2023-05-02T23:40:31.457Z,3.44
2023-05-02T23:42:59.905Z,3.48
2023-05-02T23:45:28.146Z,3.50
2023-05-02T23:47:56.543Z,3.51
2023-05-02T23:50:24.812Z,3.44
2023-05-02T23:52:53.018Z,3.53
2023-05-02T23:55:21.321Z,3.52
2023-05-02T23:57:50.916Z,3.51
